createdAt,value
2023-06-07T00:02:01.393Z,100119.00
2023-06-07T00:04:28.690Z,100119.00
2023-06-07T00:07:02.246Z,100125.94
2023-06-07T00:09:31.965Z,100118.13
2023-06-07T00:11:59.533Z,100119.88
2023-06-07T00:14:26.884Z,100119.00
2023-06-07T00:16:54.733Z,100119.00
2023-06-07T00:19:26.796Z,100114.66
2023-06-07T00:21:54.156Z,100118.16
2023-06-07T00:24:21.652Z,100125.06
2023-06-07T00:26:49.002Z,100115.56
2023-06-07T00:29:16.328Z,100119.88
2023-06-07T00:31:44.009Z,100119.88
2023-06-07T00:34:11.181Z,100125.09
2023-06-07T00:36:38.621Z,100124.22
2023-06-07T00:39:05.916Z,100130.28
2023-06-07T00:41:33.014Z,100128.53
2023-06-07T00:44:00.223Z,100131.13
2023-06-07T00:46:29.278Z,100128.53
2023-06-07T00:48:57.163Z,100133.75
2023-06-07T00:51:24.632Z,100134.63
2023-06-07T00:53:51.727Z,100138.06
2023-06-07T00:56:18.852Z,100132.00
2023-06-07T00:58:50.012Z,100136.34
2023-06-07T01:01:19.138Z,100138.09
2023-06-07T01:03:46.667Z,100145.88
2023-06-07T01:06:14.947Z,100138.94
2023-06-07T01:08:42.080Z,100143.28
2023-06-07T01:11:09.611Z,100144.16
2023-06-07T01:13:36.895Z,100146.75
2023-06-07T01:16:04.191Z,100141.53
2023-06-07T01:18:31.326Z,100150.22
2023-06-07T01:20:59.212Z,100150.19
2023-06-07T01:23:36.119Z,100145.84
2023-06-07T01:26:03.468Z,100150.19
2023-06-07T01:28:32.437Z,100147.59
2023-06-07T01:31:00.931Z,100144.13
2023-06-07T01:33:30.566Z,100142.38
2023-06-07T01:35:57.679Z,100143.28
2023-06-07T01:38:24.878Z,100150.19
2023-06-07T01:40:51.980Z,100148.44
2023-06-07T01:43:19.003Z,100141.53
2023-06-07T01:45:46.140Z,100143.25
2023-06-07T01:48:13.235Z,100144.97
2023-06-07T01:50:42.405Z,100145.84
2023-06-07T01:55:37.303Z,100149.31
2023-06-07T01:58:15.212Z,100149.31
2023-06-07T02:01:36.512Z,100152.78
2023-06-07T02:04:03.874Z,100153.66
2023-06-07T02:06:32.044Z,100145.84
2023-06-07T02:09:02.465Z,100154.50
2023-06-07T02:11:29.774Z,100151.91
2023-06-07T02:13:56.981Z,100144.97
2023-06-07T02:16:33.963Z,100139.81
2023-06-07T02:19:01.689Z,100144.13
2023-06-07T02:21:28.668Z,100149.31
2023-06-07T02:23:55.818Z,100150.22
2023-06-07T02:26:24.614Z,100139.81
2023-06-07T02:28:51.820Z,100139.78
2023-06-07T02:31:21.838Z,100146.72
2023-06-07T02:33:49.725Z,100143.25
2023-06-07T02:36:18.932Z,100138.03
2023-06-07T02:38:46.017Z,100138.88
2023-06-07T02:41:14.595Z,100142.34
2023-06-07T02:43:42.809Z,100134.56
2023-06-07T02:46:10.188Z,100135.41
2023-06-07T02:48:37.796Z,100140.59
2023-06-07T02:51:05.040Z,100146.66
2023-06-07T02:53:33.064Z,100144.03
2023-06-07T02:56:00.156Z,100144.88
2023-06-07T02:58:28.496Z,100150.91
2023-06-07T03:00:57.324Z,100145.69
2023-06-07T03:03:25.114Z,100150.88
2023-06-07T03:06:01.281Z,100153.47
2023-06-07T03:08:33.809Z,100156.88
2023-06-07T03:11:01.955Z,100154.25
2023-06-07T03:13:33.211Z,100147.28
2023-06-07T03:16:02.548Z,100153.31
2023-06-07T03:18:32.646Z,100146.31
2023-06-07T03:21:03.465Z,100148.88
2023-06-07T03:23:31.561Z,100147.97
2023-06-07T03:26:01.183Z,100145.28
2023-06-07T03:28:32.164Z,100152.13
2023-06-07T03:30:59.547Z,100155.50
2023-06-07T03:33:35.241Z,100160.53
2023-06-07T03:36:02.300Z,100157.75
2023-06-07T03:38:33.556Z,100154.06
2023-06-07T03:41:01.582Z,100156.47
2023-06-07T03:43:34.776Z,100151.78
2023-06-07T03:46:02.213Z,100145.38
2023-06-07T03:48:29.988Z,100149.41
2023-06-07T03:50:58.739Z,100148.16
2023-06-07T03:53:25.931Z,100152.22
2023-06-07T03:55:53.981Z,100147.44
2023-06-07T03:58:26.149Z,100147.88
2023-06-07T04:00:53.873Z,100154.31
2023-06-07T04:03:28.996Z,100154.72
2023-06-07T04:05:59.506Z,100149.75
2023-06-07T04:08:26.825Z,100158.81
2023-06-07T04:10:54.258Z,100153.97
2023-06-07T04:13:21.329Z,100163.75
2023-06-07T04:15:48.429Z,100166.81
2023-06-07T04:18:15.519Z,100165.63
2023-06-07T04:20:42.925Z,100163.50
2023-06-07T04:23:13.262Z,100156.09
2023-06-07T04:25:41.185Z,100158.22
2023-06-07T04:28:09.411Z,100147.28
2023-06-07T04:30:37.987Z,100152.94
2023-06-07T04:33:11.164Z,100151.53
2023-06-07T04:35:43.000Z,100149.41
2023-06-07T04:38:23.484Z,100153.88
2023-06-07T04:40:56.386Z,100139.47
2023-06-07T04:43:49.944Z,100144.16
2023-06-07T04:46:23.045Z,100148.09
2023-06-07T04:48:50.277Z,100151.03
2023-06-07T04:51:21.994Z,100141.75
2023-06-07T04:53:54.341Z,100142.91
2023-06-07T04:56:23.486Z,100143.16
2023-06-07T04:58:53.611Z,100141.22
2023-06-07T05:01:23.719Z,100146.59
2023-06-07T05:03:51.942Z,100139.56
2023-06-07T05:06:20.190Z,100140.72
2023-06-07T05:08:52.098Z,100144.22
2023-06-07T05:11:19.337Z,100152.59
2023-06-07T05:13:47.923Z,100153.22
2023-06-07T05:16:17.580Z,100157.31
2023-06-07T05:18:50.267Z,100147.72
2023-06-07T05:21:19.372Z,100148.75
2023-06-07T05:23:47.145Z,100148.00
2023-06-07T05:26:14.187Z,100147.41
2023-06-07T05:28:41.253Z,100145.88
2023-06-07T05:31:11.216Z,100145.31
2023-06-07T05:33:40.272Z,100137.22
2023-06-07T05:36:08.041Z,100141.16
2023-06-07T05:38:36.776Z,100136.44
2023-06-07T05:41:04.119Z,100131.81
2023-06-07T05:43:31.437Z,100120.88
2023-06-07T05:45:58.437Z,100133.56
2023-06-07T05:48:25.694Z,100132.97
2023-06-07T05:50:53.333Z,100135.63
2023-06-07T05:53:21.121Z,100130.00
2023-06-07T05:55:49.307Z,100129.25
2023-06-07T05:58:16.344Z,100128.88
2023-06-07T06:00:45.506Z,100126.63
2023-06-07T06:03:13.006Z,100131.22
2023-06-07T06:05:40.225Z,100127.88
2023-06-07T06:08:07.317Z,100125.56
2023-06-07T06:10:36.145Z,100122.19
2023-06-07T06:13:03.653Z,100127.13
2023-06-07T06:15:30.866Z,100121.78
2023-06-07T06:17:58.333Z,100122.56
2023-06-07T06:20:25.482Z,100119.63
2023-06-07T06:22:52.728Z,100118.84
2023-06-07T06:25:20.062Z,100117.59
2023-06-07T06:27:48.230Z,100116.88
2023-06-07T06:30:15.497Z,100120.25
2023-06-07T06:32:42.701Z,100115.56
2023-06-07T06:35:10.247Z,100114.69
2023-06-07T06:37:37.269Z,100118.88
2023-06-07T06:40:06.349Z,100119.31
2023-06-07T06:42:33.817Z,100116.81
2023-06-07T06:45:16.969Z,100119.81
2023-06-07T06:47:44.232Z,100116.00
2023-06-07T06:50:30.386Z,100121.13
2023-06-07T06:52:59.062Z,100115.81
2023-06-07T06:55:26.236Z,100113.34
2023-06-07T06:57:53.199Z,100119.25
2023-06-07T07:00:20.459Z,100115.25
2023-06-07T07:02:47.569Z,100121.38
2023-06-07T07:05:15.439Z,100121.66
2023-06-07T07:07:43.160Z,100114.06
2023-06-07T07:10:10.819Z,100102.84
2023-06-07T07:12:40.720Z,100106.69
2023-06-07T07:15:08.093Z,100098.75
2023-06-07T07:17:35.329Z,100104.81
2023-06-07T07:20:02.438Z,100100.97
2023-06-07T07:22:32.281Z,100105.66
2023-06-07T07:24:59.461Z,100108.16
2023-06-07T07:27:26.692Z,100095.28
2023-06-07T07:29:54.084Z,100088.50
2023-06-07T07:32:21.450Z,100098.09
2023-06-07T07:34:48.552Z,100097.78
2023-06-07T07:37:15.887Z,100093.50
2023-06-07T07:39:43.025Z,100097.31
2023-06-07T07:42:10.131Z,100105.81
2023-06-07T07:44:38.476Z,100098.81
2023-06-07T07:47:08.794Z,100095.44
2023-06-07T07:49:36.728Z,100090.84
2023-06-07T07:52:04.651Z,100094.03
2023-06-07T07:54:32.014Z,100090.44
2023-06-07T07:56:59.091Z,100098.38
2023-06-07T07:59:26.468Z,100092.56
2023-06-07T08:01:53.998Z,100093.00
2023-06-07T08:04:21.070Z,100101.13
2023-06-07T08:06:48.865Z,100090.41
2023-06-07T08:09:15.925Z,100098.56
2023-06-07T08:11:43.093Z,100094.78
2023-06-07T08:14:10.268Z,100087.22
2023-06-07T08:16:37.372Z,100089.31
2023-06-07T08:19:08.225Z,100091.38
2023-06-07T08:21:35.564Z,100086.00
2023-06-07T08:24:03.107Z,100088.50
2023-06-07T08:26:30.152Z,100077.06
2023-06-07T08:28:57.508Z,100074.94
2023-06-07T08:31:28.397Z,100090.09
2023-06-07T08:33:55.857Z,100086.66
2023-06-07T08:36:23.323Z,100091.13
2023-06-07T08:38:50.498Z,100085.16
2023-06-07T08:41:17.791Z,100070.19
2023-06-07T08:43:45.266Z,100083.19
2023-06-07T08:46:12.497Z,100077.09
2023-06-07T08:48:41.017Z,100078.22
2023-06-07T08:51:09.201Z,100078.06
2023-06-07T08:53:48.090Z,100071.44
2023-06-07T08:56:18.123Z,100068.19
2023-06-07T08:58:45.544Z,100068.72
2023-06-07T09:01:13.069Z,100062.63
2023-06-07T09:03:40.764Z,100061.00
2023-06-07T09:06:07.920Z,100065.28
2023-06-07T09:08:35.139Z,100055.84
2023-06-07T09:11:02.656Z,100060.97
2023-06-07T09:13:30.293Z,100053.09
2023-06-07T09:15:58.556Z,100058.56
2023-06-07T09:18:45.054Z,100052.22
2023-06-07T09:21:33.619Z,100057.09
2023-06-07T09:24:01.060Z,100053.31
2023-06-07T09:26:39.742Z,100056.31
2023-06-07T09:29:08.731Z,100055.75
2023-06-07T09:31:38.964Z,100050.19
2023-06-07T09:34:22.998Z,100049.31
2023-06-07T09:36:57.860Z,100044.78
2023-06-07T09:39:27.484Z,100041.72
2023-06-07T09:41:55.788Z,100044.84
2023-06-07T09:44:27.587Z,100032.97
2023-06-07T09:46:55.356Z,100034.81
2023-06-07T09:49:40.467Z,100032.97
2023-06-07T09:52:14.480Z,100020.72
2023-06-07T09:54:42.819Z,100026.78
2023-06-07T09:57:11.261Z,100015.31
2023-06-07T09:59:39.285Z,100014.00
2023-06-07T10:02:25.992Z,100010.97
2023-06-07T10:04:57.427Z,100017.53
2023-06-07T10:07:27.790Z,100008.53
2023-06-07T10:09:55.236Z,100009.13
2023-06-07T10:12:23.246Z,99998.06
2023-06-07T10:14:50.379Z,100000.78
2023-06-07T10:17:17.566Z,100004.72
2023-06-07T10:19:45.808Z,100002.31
2023-06-07T10:22:15.682Z,100004.34
2023-06-07T10:25:04.455Z,99999.38
2023-06-07T10:27:36.606Z,99996.94
2023-06-07T10:30:07.961Z,99990.53
2023-06-07T10:32:36.108Z,99990.63
2023-06-07T10:35:04.346Z,99982.63
2023-06-07T10:37:34.852Z,99980.50
2023-06-07T10:40:07.275Z,99976.69
2023-06-07T10:42:34.710Z,99980.59
2023-06-07T10:45:02.020Z,99978.38
2023-06-07T10:47:32.003Z,99976.31
2023-06-07T10:49:59.503Z,99970.13
2023-06-07T10:52:27.940Z,99962.03
2023-06-07T10:54:55.347Z,99963.50
2023-06-07T10:57:38.566Z,99954.78
2023-06-07T11:00:31.558Z,99949.25
2023-06-07T11:03:09.608Z,99953.31
2023-06-07T11:06:03.797Z,99946.94
2023-06-07T11:08:32.236Z,99949.06
2023-06-07T11:11:02.265Z,99940.06
2023-06-07T11:13:45.687Z,99946.06
2023-06-07T11:16:25.021Z,99927.47
2023-06-07T11:19:11.240Z,99928.56
2023-06-07T11:21:57.099Z,99926.19
2023-06-07T11:24:24.206Z,99925.41
2023-06-07T11:26:52.167Z,99915.06
2023-06-07T11:29:19.449Z,99912.94
2023-06-07T11:31:49.992Z,99904.69
2023-06-07T11:34:17.320Z,99909.31
2023-06-07T11:36:44.913Z,99911.19
2023-06-07T11:39:17.977Z,99894.53
2023-06-07T11:41:48.194Z,99902.84
2023-06-07T11:44:15.670Z,99897.03
2023-06-07T11:46:42.758Z,99898.72
2023-06-07T11:49:13.480Z,99897.19
2023-06-07T11:51:40.812Z,99896.59
2023-06-07T11:54:09.498Z,99898.66
2023-06-07T11:56:38.811Z,99893.00
2023-06-07T11:59:06.202Z,99892.31
2023-06-07T12:01:34.524Z,99893.09
2023-06-07T12:04:01.785Z,99897.28
2023-06-07T12:06:28.964Z,99888.06
2023-06-07T12:08:56.008Z,99886.03
2023-06-07T12:11:27.133Z,99885.88
2023-06-07T12:14:01.107Z,99885.31
2023-06-07T12:16:29.122Z,99885.66
2023-06-07T12:18:56.645Z,99879.50
2023-06-07T12:21:24.437Z,99876.34
2023-06-07T12:23:53.893Z,99869.19
2023-06-07T12:26:22.741Z,99870.63
2023-06-07T12:28:50.948Z,99868.72
2023-06-07T12:31:25.309Z,99873.53
2023-06-07T12:33:55.797Z,99866.34
2023-06-07T12:36:23.779Z,99871.56
2023-06-07T12:38:51.147Z,99872.59
2023-06-07T12:41:18.561Z,99862.84
2023-06-07T12:43:46.780Z,99858.13
2023-06-07T12:46:14.425Z,99864.22
2023-06-07T12:48:44.397Z,99860.47
2023-06-07T12:51:11.557Z,99845.06
2023-06-07T12:53:39.455Z,99847.16
2023-06-07T12:56:07.050Z,99847.59
2023-06-07T12:58:34.333Z,99853.44
2023-06-07T13:01:01.839Z,99840.94
2023-06-07T13:03:29.494Z,99840.34
2023-06-07T13:05:56.759Z,99835.66
2023-06-07T13:08:24.500Z,99842.66
2023-06-07T13:10:51.508Z,99841.88
2023-06-07T13:13:18.652Z,99834.09
2023-06-07T13:15:46.994Z,99830.63
2023-06-07T13:18:14.262Z,99841.09
2023-06-07T13:20:41.322Z,99840.78
2023-06-07T13:23:08.521Z,99824.38
2023-06-07T13:25:35.771Z,99829.13
2023-06-07T13:28:04.000Z,99833.16
2023-06-07T13:30:32.799Z,99823.66
2023-06-07T13:32:59.910Z,99818.28
2023-06-07T13:35:29.277Z,99822.63
2023-06-07T13:38:01.299Z,99815.91
2023-06-07T13:40:28.379Z,99820.97
2023-06-07T13:42:55.480Z,99822.22
2023-06-07T13:45:22.565Z,99814.94
2023-06-07T13:47:50.421Z,99812.84
2023-06-07T13:50:17.510Z,99809.59
2023-06-07T13:52:44.536Z,99817.13
2023-06-07T13:55:11.643Z,99812.47
2023-06-07T13:57:38.869Z,99805.31
2023-06-07T14:00:06.966Z,99811.16
2023-06-07T14:02:42.468Z,99816.56
2023-06-07T14:05:10.136Z,99812.38
2023-06-07T14:07:37.532Z,99808.25
2023-06-07T14:10:04.834Z,99807.81
2023-06-07T14:12:32.186Z,99805.03
2023-06-07T14:14:59.407Z,99805.81
2023-06-07T14:17:26.601Z,99812.69
2023-06-07T14:19:53.721Z,99809.88
2023-06-07T14:22:20.814Z,99807.59
2023-06-07T14:24:47.914Z,99809.75
2023-06-07T14:27:16.180Z,99805.69
2023-06-07T14:29:43.228Z,99807.66
2023-06-07T14:32:10.397Z,99807.66
2023-06-07T14:34:37.592Z,99806.94
2023-06-07T14:37:04.803Z,99808.00
2023-06-07T14:39:31.814Z,99807.00
2023-06-07T14:41:58.899Z,99810.13
2023-06-07T14:44:26.012Z,99801.63
2023-06-07T14:46:53.134Z,99791.53
2023-06-07T14:49:20.256Z,99797.38
2023-06-07T14:51:48.556Z,99800.75
2023-06-07T14:54:16.001Z,99797.50
2023-06-07T14:56:43.049Z,99804.03
2023-06-07T14:59:14.052Z,99804.47
2023-06-07T15:01:41.721Z,99805.94
2023-06-07T15:04:09.136Z,99802.56
2023-06-07T15:06:36.886Z,99813.22
2023-06-07T15:09:04.697Z,99798.31
2023-06-07T15:11:31.685Z,99809.94
2023-06-07T15:13:58.833Z,99813.94
2023-06-07T15:16:26.614Z,99812.38
2023-06-07T15:18:53.879Z,99807.34
2023-06-07T15:21:20.898Z,99814.47
2023-06-07T15:23:50.697Z,99808.31
2023-06-07T15:26:18.353Z,99807.63
2023-06-07T15:28:45.879Z,99803.31
2023-06-07T15:31:13.104Z,99805.25
2023-06-07T15:33:40.380Z,99810.69
2023-06-07T15:36:07.617Z,99809.03
2023-06-07T15:38:38.791Z,99799.47
2023-06-07T15:41:09.526Z,99804.94
2023-06-07T15:43:37.137Z,99799.72
2023-06-07T15:48:31.731Z,99800.16
2023-06-07T15:50:59.024Z,99801.13
2023-06-07T15:53:26.079Z,99793.44
2023-06-07T15:55:53.170Z,99803.34
2023-06-07T15:58:20.326Z,99802.59
2023-06-07T16:00:49.180Z,99795.75
2023-06-07T16:03:16.766Z,99803.88
2023-06-07T16:05:44.018Z,99803.09
2023-06-07T16:08:14.425Z,99799.75
2023-06-07T16:10:44.183Z,99796.53
2023-06-07T16:13:11.212Z,99795.03
2023-06-07T16:15:38.398Z,99797.94
2023-06-07T16:18:06.537Z,99804.31
2023-06-07T16:20:33.667Z,99801.94
2023-06-07T16:23:01.849Z,99805.75
2023-06-07T16:25:29.277Z,99813.75
2023-06-07T16:27:56.931Z,99802.56
2023-06-07T16:30:23.966Z,99805.38
2023-06-07T16:32:51.133Z,99795.91
2023-06-07T16:35:18.424Z,99802.22
2023-06-07T16:37:45.567Z,99803.41
2023-06-07T16:40:13.012Z,99803.59
2023-06-07T16:42:42.224Z,99803.78
2023-06-07T16:45:10.240Z,99811.88
2023-06-07T16:47:37.746Z,99809.41
2023-06-07T16:50:05.881Z,99810.56
2023-06-07T16:52:34.136Z,99812.53
2023-06-07T16:55:01.404Z,99815.41
2023-06-07T16:57:31.638Z,99816.53
2023-06-07T16:59:59.519Z,99834.25
2023-06-07T17:02:26.946Z,99859.78
2023-06-07T17:04:54.296Z,99860.31
2023-06-07T17:07:21.508Z,99857.34
2023-06-07T17:09:48.981Z,99859.50
2023-06-07T17:12:16.512Z,99860.88
2023-06-07T17:14:49.365Z,99869.19
2023-06-07T17:17:17.059Z,99866.03
2023-06-07T17:19:44.774Z,99873.50
2023-06-07T17:22:12.069Z,99883.44
2023-06-07T17:24:39.133Z,99888.88
2023-06-07T17:27:08.432Z,99890.16
2023-06-07T17:29:36.438Z,99880.88
2023-06-07T17:32:09.014Z,99875.03
2023-06-07T17:34:39.345Z,99882.25
2023-06-07T17:37:11.893Z,99882.53
2023-06-07T17:39:38.963Z,99885.28
2023-06-07T17:42:07.456Z,99886.25
2023-06-07T17:44:34.508Z,99888.16
2023-06-07T17:47:01.848Z,99886.63
2023-06-07T17:49:28.864Z,99887.75
2023-06-07T17:52:23.480Z,99900.22
2023-06-07T17:54:56.601Z,99926.47
2023-06-07T17:57:49.276Z,99937.84
2023-06-07T18:00:17.147Z,99922.22
2023-06-07T18:02:44.769Z,99928.75
2023-06-07T18:05:15.139Z,99938.81
2023-06-07T18:07:42.336Z,99935.56
2023-06-07T18:10:09.745Z,99933.94
2023-06-07T18:12:37.021Z,99936.69
2023-06-07T18:15:10.703Z,99934.22
2023-06-07T18:17:41.422Z,99946.53
2023-06-07T18:20:12.290Z,99969.22
2023-06-07T18:22:39.544Z,99982.56
2023-06-07T18:25:07.015Z,99979.31
2023-06-07T18:27:34.220Z,99983.22
2023-06-07T18:30:01.388Z,99998.31
2023-06-07T18:32:32.172Z,99983.56
2023-06-07T18:35:00.451Z,99974.88
2023-06-07T18:37:32.790Z,99955.91
2023-06-07T18:40:06.252Z,99951.84
2023-06-07T18:42:33.708Z,99944.31
2023-06-07T18:45:02.287Z,99944.53
2023-06-07T18:47:33.588Z,99941.13
2023-06-07T18:50:00.855Z,99940.53
2023-06-07T18:52:28.057Z,99934.66
2023-06-07T18:54:55.152Z,99937.47
2023-06-07T18:57:22.347Z,99934.88
2023-06-07T18:59:49.508Z,99940.81
2023-06-07T19:02:20.088Z,99952.84
2023-06-07T19:04:53.652Z,99966.69
2023-06-07T19:07:20.809Z,99975.44
2023-06-07T19:09:48.192Z,99982.59
2023-06-07T19:12:15.403Z,99992.28
2023-06-07T19:14:43.022Z,100000.25
2023-06-07T19:17:12.034Z,99993.41
2023-06-07T19:19:39.558Z,99994.44
2023-06-07T19:22:10.336Z,99983.19
2023-06-07T19:24:44.112Z,99964.13
2023-06-07T19:27:11.848Z,99952.91
2023-06-07T19:29:42.026Z,99956.41
2023-06-07T19:32:09.924Z,99950.34
2023-06-07T19:34:37.391Z,99951.19
2023-06-07T19:37:04.921Z,99952.00
2023-06-07T19:39:32.599Z,99956.28
2023-06-07T19:42:03.856Z,99939.81
2023-06-07T19:44:31.138Z,99941.72
2023-06-07T19:47:02.437Z,99927.13
2023-06-07T19:49:30.368Z,99925.56
2023-06-07T19:51:57.493Z,99918.66
2023-06-07T19:54:24.860Z,99910.00
2023-06-07T19:56:51.915Z,99908.31
2023-06-07T19:59:19.300Z,99899.72
2023-06-07T20:01:47.522Z,99894.56
2023-06-07T20:04:14.915Z,99897.94
2023-06-07T20:06:41.988Z,99897.88
2023-06-07T20:09:09.263Z,99891.72
2023-06-07T20:11:37.414Z,99900.38
2023-06-07T20:14:04.496Z,99890.09
2023-06-07T20:16:31.852Z,99891.97
2023-06-07T20:18:58.910Z,99885.81
2023-06-07T20:21:27.982Z,99885.78
2023-06-07T20:23:55.142Z,99887.50
2023-06-07T20:26:22.344Z,99896.22
2023-06-07T20:28:49.476Z,99891.88
2023-06-07T20:31:17.245Z,99900.59
2023-06-07T20:33:45.222Z,99914.50
2023-06-07T20:36:12.312Z,99927.59
2023-06-07T20:38:39.413Z,99938.13
2023-06-07T20:41:06.466Z,99947.72
2023-06-07T20:43:33.605Z,99954.03
2023-06-07T20:46:01.331Z,99942.84
2023-06-07T20:48:28.441Z,99934.22
2023-06-07T20:50:55.817Z,99928.97
2023-06-07T20:53:23.077Z,99933.25
2023-06-07T20:55:50.141Z,99914.97
2023-06-07T20:58:20.363Z,99908.84
2023-06-07T21:00:50.311Z,99903.69
2023-06-07T21:03:17.566Z,99906.34
2023-06-07T21:05:44.641Z,99904.66
2023-06-07T21:08:11.753Z,99900.38
2023-06-07T21:10:39.033Z,99891.66
2023-06-07T21:13:06.130Z,99897.72
2023-06-07T21:15:33.459Z,99896.00
2023-06-07T21:18:00.701Z,99899.44
2023-06-07T21:20:27.785Z,99900.28
2023-06-07T21:22:56.928Z,99915.09
2023-06-07T21:25:24.771Z,99923.78
2023-06-07T21:27:51.897Z,99929.84
2023-06-07T21:30:19.371Z,99927.19
2023-06-07T21:32:46.649Z,99919.34
2023-06-07T21:35:13.787Z,99916.78
2023-06-07T21:37:41.593Z,99903.75
2023-06-07T21:40:09.132Z,99905.47
2023-06-07T21:42:36.572Z,99902.00
2023-06-07T21:45:04.383Z,99906.41
2023-06-07T21:47:33.066Z,99907.25
2023-06-07T21:50:00.865Z,99906.41
2023-06-07T21:52:28.258Z,99903.75
2023-06-07T21:54:55.209Z,99896.84
2023-06-07T21:57:22.288Z,99901.22
2023-06-07T21:59:49.442Z,99902.00
2023-06-07T22:02:16.479Z,99904.63
2023-06-07T22:04:43.700Z,99907.25
2023-06-07T22:07:11.008Z,99910.72
2023-06-07T22:09:38.232Z,99913.34
2023-06-07T22:12:07.005Z,99913.34
2023-06-07T22:14:34.346Z,99922.94
2023-06-07T22:17:01.970Z,99923.88
2023-06-07T22:19:31.277Z,99916.16
2023-06-07T22:21:58.810Z,99922.31
2023-06-07T22:24:27.878Z,99929.25
2023-06-07T22:26:55.054Z,99932.75
2023-06-07T22:29:22.321Z,99921.41
2023-06-07T22:31:49.645Z,99919.63
2023-06-07T22:34:19.545Z,99924.03
2023-06-07T22:36:46.569Z,99924.06
2023-06-07T22:39:14.540Z,99919.69
2023-06-07T22:41:44.354Z,99919.78
2023-06-07T22:44:11.602Z,99919.91
2023-06-07T22:46:38.981Z,99918.22
2023-06-07T22:49:06.693Z,99925.19
2023-06-07T22:51:41.978Z,99928.63
2023-06-07T22:54:09.603Z,99928.63
2023-06-07T22:56:36.684Z,99941.69
2023-06-07T22:59:03.955Z,99929.50
2023-06-07T23:01:33.010Z,99937.22
2023-06-07T23:04:02.089Z,99933.72
2023-06-07T23:06:35.546Z,99924.16
2023-06-07T23:09:04.751Z,99919.00
2023-06-07T23:11:33.603Z,99920.75
2023-06-07T23:14:01.249Z,99917.31
2023-06-07T23:16:29.367Z,99924.25
2023-06-07T23:18:58.405Z,99921.66
2023-06-07T23:21:26.784Z,99919.06
2023-06-07T23:23:54.252Z,99931.31
2023-06-07T23:26:21.768Z,99927.91
2023-06-07T23:28:49.176Z,99935.78
2023-06-07T23:31:16.244Z,99925.41
2023-06-07T23:33:43.730Z,99925.50
2023-06-07T23:36:11.094Z,99924.66
2023-06-07T23:38:38.170Z,99928.16
2023-06-07T23:41:05.213Z,99929.94
2023-06-07T23:43:32.215Z,99924.75
2023-06-07T23:45:59.346Z,99930.81
2023-06-07T23:48:28.529Z,99931.69
2023-06-07T23:50:56.187Z,99928.28
2023-06-07T23:53:23.522Z,99929.16
2023-06-07T23:55:50.798Z,99934.41
2023-06-07T23:58:17.929Z,99931.84
